.
WxDataArchive / Data Records for 2011-06-05
2011-06-04 June 2011 2011-06-06

Data Records for Sunday, 05 June 2011

Time	Temp	Chill	HIndex	Humid	Dewpt	 Wind 	HiWind	WindDir	Rain 	Barom 
-----	----	-----	------	-----	-----	------	------	-------	-----	----- 
00:00	72.3	72.3	72.3	84	67.2	2	4	270	0.00	30.039 
00:05	72.3	72.3	72.3	84	67.2	1	3	270	0.00	30.039 
00:10	72.3	72.3	72.3	83	66.8	1	3	270	0.00	30.039 
00:15	72.3	72.3	72.3	83	66.8	2	4	270	0.00	30.033 
00:20	72.3	72.3	72.3	83	66.8	2	4	270	0.00	30.033 
00:25	72.5	72.5	72.5	82	66.7	1	5	270	0.00	30.033 
00:30	72.5	72.5	72.5	81	66.3	2	5	270	0.00	30.030 
00:35	72.5	72.5	72.5	81	66.3	1	4	270	0.00	30.030 
00:40	72.7	72.7	72.7	80	66.2	2	4	270	0.00	30.030 
00:45	72.7	72.7	72.7	79	65.8	1	3	270	0.00	30.030 
00:50	72.7	72.7	72.7	78	65.4	2	5	270	0.00	30.030 
00:55	72.7	72.7	72.7	77	65.1	1	3	270	0.00	30.030 
01:00	73.0	73.0	73.0	76	65.0	1	4	270	0.00	30.031 
01:05	73.2	73.2	73.2	75	64.8	1	3	292	0.00	30.031 
01:10	73.3	73.3	73.3	75	64.9	1	4	292	0.00	30.031 
01:15	73.3	73.3	73.3	75	64.9	1	3	248	0.00	30.038 
01:20	73.5	73.5	73.5	75	65.1	1	3	292	0.00	30.038 
01:25	73.5	73.5	73.5	74	64.7	1	3	292	0.00	30.038 
01:30	73.5	73.5	73.5	74	64.7	1	3	292	0.00	30.034 
01:35	73.5	73.5	73.5	74	64.7	1	2	292	0.00	30.034 
01:40	73.5	73.5	73.5	74	64.7	0	3	292	0.00	30.034 
01:45	73.3	73.3	73.3	73	64.1	1	3	292	0.00	30.034 
01:50	73.3	73.3	73.3	74	64.5	0	2	292	0.00	30.034 
01:55	73.2	73.2	73.2	74	64.4	0	1	292	0.00	30.034 
02:00	73.2	73.2	73.2	75	64.8	0	1	292	0.00	30.031 
02:05	73.0	73.0	73.0	76	65.0	1	3	292	0.00	30.031 
02:10	73.0	73.0	73.0	76	65.0	0	1	292	0.00	30.031 
02:15	72.7	72.7	72.7	77	65.1	0	1	292	0.00	30.028 
02:20	72.7	72.7	72.7	77	65.1	0	1	292	0.00	30.028 
02:25	72.5	72.5	72.5	78	65.2	1	3	292	0.00	30.028 
02:30	72.3	72.3	72.3	79	65.4	0	1	292	0.00	30.028 
02:35	72.1	72.1	72.1	80	65.6	1	3	292	0.00	30.028 
02:40	72.0	72.0	72.0	80	65.5	0	1	292	0.00	30.028 
02:45	71.8	71.8	71.8	81	65.6	0	1	292	0.00	30.026 
02:50	71.6	71.6	71.6	81	65.4	0	1	292	0.00	30.026 
02:55	71.3	71.3	71.3	82	65.5	0	2	292	0.00	30.026 
03:00	71.1	71.1	71.1	83	65.7	0	2	292	0.00	30.020 
03:05	70.9	70.9	70.9	84	65.8	0	1	292	0.00	30.020 
03:10	70.8	70.8	70.8	84	65.7	0	1	292	0.00	30.020 
03:15	70.4	70.4	70.4	85	65.7	0	3	292	0.00	30.015 
03:20	70.3	70.3	70.3	85	65.6	0	1	292	0.00	30.015 
03:25	70.1	70.1	70.1	86	65.7	0	2	292	0.00	30.015 
03:30	70.1	70.1	70.1	86	65.7	1	3	292	0.00	30.014 
03:35	70.1	70.1	70.1	87	66.0	0	2	292	0.00	30.014 
03:40	69.9	69.9	69.9	87	65.8	1	3	292	0.00	30.014 
03:45	69.9	69.9	69.9	87	65.8	1	3	292	0.00	30.013 
03:50	69.8	69.8	69.8	87	65.7	1	3	292	0.00	30.013 
03:55	69.8	69.8	69.8	87	65.7	0	2	292	0.00	30.013 
04:00	69.6	69.6	69.6	87	65.6	0	2	292	0.00	30.014 
04:05	69.4	69.4	69.4	87	65.4	0	1	292	0.00	30.014 
04:10	69.4	69.4	69.4	85	64.7	0	2	292	0.00	30.014 
04:15	69.4	69.4	69.4	84	64.3	0	1	292	0.00	30.016 
04:20	69.4	69.4	69.4	84	64.3	0	0	---	0.00	30.016 
04:25	69.3	69.3	69.3	83	63.9	0	1	292	0.00	30.016 
04:30	69.3	69.3	69.3	83	63.9	0	1	292	0.00	30.017 
04:35	69.3	69.3	69.3	83	63.9	0	1	292	0.00	30.017 
04:40	69.1	69.1	69.1	83	63.7	0	1	292	0.00	30.017 
04:45	69.1	69.1	69.1	83	63.7	0	0	---	0.00	30.019 
04:50	68.9	68.9	68.9	82	63.2	0	0	---	0.00	30.019 
04:55	68.8	68.8	68.8	81	62.7	0	1	292	0.00	30.019 
05:00	68.8	68.8	68.8	81	62.7	0	0	---	0.00	30.027 
05:05	68.6	68.6	68.6	81	62.5	0	0	---	0.00	30.027 
05:10	68.6	68.6	68.6	81	62.5	0	0	---	0.00	30.027 
05:15	68.4	68.4	68.4	82	62.7	0	0	---	0.00	30.031 
05:20	68.3	68.3	68.3	82	62.6	0	1	292	0.00	30.031 
05:25	68.1	68.1	68.1	82	62.4	0	0	---	0.00	30.031 
05:30	67.9	67.9	67.9	82	62.2	0	0	---	0.00	30.033 
05:35	67.8	67.8	67.8	82	62.1	0	1	292	0.00	30.033 
05:40	67.6	67.6	67.6	82	61.9	0	1	292	0.00	30.033 
05:45	67.6	67.6	67.6	83	62.2	0	1	292	0.00	30.035 
05:50	67.6	67.6	67.6	83	62.2	0	1	292	0.00	30.035 
05:55	67.4	67.4	67.4	83	62.0	0	1	292	0.00	30.035 
06:00	67.3	67.3	67.3	83	62.0	0	0	---	0.00	30.040 
06:05	67.1	67.1	67.1	83	61.8	0	0	---	0.00	30.040 
06:10	66.9	66.9	66.9	83	61.6	0	0	---	0.00	30.040 
06:15	66.8	66.8	66.8	83	61.5	0	0	---	0.00	30.048 
06:20	66.4	66.4	66.4	84	61.4	0	0	---	0.00	30.048 
06:25	66.4	66.4	66.4	84	61.4	0	0	---	0.00	30.048 
06:30	66.3	66.3	66.3	84	61.3	0	0	---	0.00	30.048 
06:35	66.0	66.0	66.0	84	61.0	0	0	---	0.00	30.048 
06:40	65.8	65.8	65.8	84	60.8	0	0	---	0.00	30.048 
06:45	65.6	65.6	65.6	84	60.6	0	0	---	0.00	30.053 
06:50	65.6	65.6	65.6	84	60.6	0	1	292	0.00	30.053 
06:55	65.8	65.8	65.8	83	60.5	0	0	---	0.00	30.053 
07:00	65.8	65.8	65.8	83	60.5	0	1	292	0.00	30.054 
07:05	66.0	66.0	66.0	82	60.3	0	1	292	0.00	30.054 
07:10	66.1	66.1	66.1	81	60.1	0	1	292	0.00	30.054 
07:15	66.1	66.1	66.1	81	60.1	0	0	---	0.00	30.056 
07:20	66.3	66.3	66.3	81	60.3	0	0	---	0.00	30.056 
07:25	66.3	66.3	66.3	81	60.3	0	0	---	0.00	30.056 
07:30	66.4	66.4	66.4	80	60.0	0	1	292	0.00	30.057 
07:35	66.8	66.8	66.8	78	59.7	0	1	292	0.00	30.057 
07:40	67.1	67.1	67.1	78	60.0	0	0	---	0.00	30.057 
07:45	67.3	67.3	67.3	77	59.8	0	1	292	0.00	30.062 
07:50	67.6	67.6	67.6	77	60.1	0	0	---	0.00	30.062 
07:55	68.1	68.1	68.1	76	60.2	0	0	---	0.00	30.062 
08:00	68.4	68.4	68.4	76	60.5	0	1	292	0.00	30.067 
08:05	68.6	68.6	68.6	75	60.3	0	1	292	0.00	30.067 
08:10	68.9	68.9	68.9	75	60.6	0	1	292	0.00	30.067 
08:15	69.3	69.3	69.3	74	60.6	0	1	292	0.00	30.079 
08:20	69.6	69.6	69.6	73	60.6	0	1	292	0.00	30.079 
08:25	69.9	69.9	69.9	73	60.8	0	0	---	0.00	30.079 
08:30	70.4	70.4	70.4	74	61.7	0	1	292	0.00	30.075 
08:35	71.1	71.1	71.1	73	62.0	0	1	292	0.00	30.075 
08:40	71.8	71.8	71.8	72	62.3	0	0	---	0.00	30.075 
08:45	72.5	72.5	72.5	72	62.9	0	1	292	0.00	30.066 
08:50	73.0	73.0	73.0	71	63.0	0	2	292	0.00	30.066 
08:55	73.0	73.0	73.0	72	63.4	0	3	292	0.00	30.066 
09:00	73.2	73.2	73.2	74	64.4	0	2	292	0.00	30.061 
09:05	73.3	73.3	73.3	73	64.1	0	1	292	0.00	30.061 
09:10	73.7	73.7	73.7	73	64.5	0	3	292	0.00	30.061 
09:15	73.9	73.9	73.9	74	65.1	0	1	292	0.00	30.067 
09:20	74.2	74.2	74.2	75	65.8	0	1	292	0.00	30.067 
09:25	74.6	74.6	74.6	73	65.4	1	3	45	0.00	30.067 
09:30	74.9	74.9	74.9	73	65.6	0	2	45	0.00	30.072 
09:35	74.9	74.9	74.9	73	65.6	1	3	45	0.00	30.072 
09:40	75.1	75.1	76.5	73	65.8	0	2	45	0.00	30.072 
09:45	75.3	75.3	76.6	74	66.4	1	2	45	0.00	30.071 
09:50	75.3	75.3	76.7	73	66.0	1	3	45	0.00	30.071 
09:55	75.4	75.4	76.8	73	66.1	0	2	45	0.00	30.071 
10:00	76.0	76.0	77.4	75	67.5	0	0	---	0.00	30.074 
10:05	76.3	76.3	77.8	73	67.0	0	0	---	0.00	30.074 
10:10	76.7	76.7	78.3	74	67.8	0	0	---	0.00	30.074 
10:15	77.0	77.0	78.7	72	67.3	0	2	45	0.00	30.072 
10:20	77.4	77.4	79.3	70	66.8	0	3	45	0.00	30.072 
10:25	77.7	77.7	79.7	72	67.9	0	1	45	0.00	30.072 
10:30	78.3	78.3	80.5	71	68.1	0	1	45	0.00	30.070 
10:35	78.8	78.8	81.2	71	68.6	0	3	45	0.00	30.070 
10:40	79.0	79.0	81.4	70	68.4	1	4	45	0.00	30.070 
10:45	79.4	79.4	82.0	70	68.7	0	2	45	0.00	30.066 
10:50	79.6	79.6	82.4	71	69.3	1	4	45	0.00	30.066 
10:55	79.6	79.6	82.2	69	68.5	1	4	68	0.00	30.066 
11:00	79.6	79.6	82.3	70	68.9	0	1	68	0.00	30.067 
11:05	79.6	79.6	82.1	68	68.1	1	3	68	0.00	30.067 
11:10	80.1	80.1	83.0	69	69.0	0	1	68	0.00	30.067 
11:15	80.7	80.7	84.0	69	69.6	0	0	---	0.00	30.069 
11:20	81.1	81.1	84.3	67	69.1	0	0	---	0.00	30.069 
11:25	81.2	81.2	84.3	66	68.7	0	2	68	0.00	30.069 
11:30	81.2	81.2	84.5	67	69.2	0	1	68	0.00	30.073 
11:35	80.7	80.7	83.4	65	67.8	0	2	68	0.00	30.073 
11:40	80.5	80.5	83.2	66	68.1	0	0	---	0.00	30.073 
11:45	80.5	80.5	83.1	65	67.6	0	0	---	0.00	30.074 
11:50	80.9	80.9	83.7	65	68.0	0	0	---	0.00	30.074 
11:55	81.2	81.2	84.1	65	68.3	0	0	---	0.00	30.074 
12:00	81.4	81.4	84.3	64	68.0	0	0	---	0.00	30.080 
12:05	81.4	81.4	84.1	63	67.6	0	1	68	0.00	30.080 
12:10	81.8	81.8	84.9	64	68.4	0	0	---	0.00	30.080 
12:15	82.2	82.2	85.5	64	68.8	0	1	68	0.00	30.081 
12:20	82.4	82.4	85.2	61	67.6	0	2	68	0.00	30.081 
12:25	82.2	82.2	84.5	59	66.4	0	0	---	0.00	30.081 
12:30	82.2	82.2	84.7	60	66.9	0	1	68	0.00	30.078 
12:35	82.4	82.4	85.0	60	67.1	0	2	68	0.00	30.078 
12:40	82.4	82.4	84.8	59	66.6	1	3	90	0.00	30.078 
12:45	82.8	82.8	85.8	61	67.9	0	1	90	0.00	30.070 
12:50	83.0	83.0	85.5	58	66.7	0	2	90	0.00	30.070 
12:55	83.4	83.4	85.8	57	66.5	0	1	90	0.00	30.070 
13:00	83.6	83.6	85.2	53	64.6	1	3	338	0.00	30.075 
13:05	83.6	83.6	84.6	50	63.0	0	2	338	0.00	30.075 
13:10	83.4	83.4	83.8	47	61.0	0	2	338	0.00	30.075 
13:15	83.8	83.8	84.5	48	62.0	0	2	338	0.00	30.079 
13:20	83.8	83.8	83.7	44	59.5	0	1	338	0.00	30.079 
13:25	83.6	83.6	84.1	47	61.2	0	2	338	0.00	30.079 
13:30	83.4	83.4	84.0	48	61.6	0	1	338	0.00	30.075 
13:35	83.4	83.4	83.7	46	60.4	0	1	338	0.00	30.075 
13:40	83.2	83.2	83.6	47	60.8	0	2	338	0.00	30.075 
13:45	83.0	83.0	83.5	48	61.3	0	1	338	0.00	30.069 
13:50	82.8	82.8	82.7	44	58.6	0	1	338	0.00	30.069 
13:55	82.8	82.8	82.9	45	59.3	0	2	338	0.00	30.069 
14:00	82.8	82.8	83.0	46	59.9	1	2	315	0.00	30.068 
14:05	82.8	82.8	83.0	46	59.9	0	2	315	0.00	30.068 
14:10	82.8	82.8	83.0	46	59.9	0	2	315	0.00	30.068 
14:15	83.0	83.0	83.2	46	60.1	0	2	315	0.00	30.073 
14:20	83.2	83.2	83.3	45	59.6	1	3	315	0.00	30.073 
14:25	83.4	83.4	83.7	46	60.4	1	4	315	0.00	30.073 
14:30	83.4	83.4	83.7	46	60.4	1	2	292	0.00	30.072 
14:35	83.6	83.6	83.7	45	60.0	1	2	315	0.00	30.072 
14:40	84.0	84.0	84.3	46	61.0	1	3	292	0.00	30.072 
14:45	84.3	84.3	84.7	46	61.2	0	3	292	0.00	30.070 
14:50	84.5	84.5	84.3	43	59.5	2	4	292	0.00	30.070 
14:55	84.5	84.5	84.5	44	60.2	1	3	292	0.00	30.070 
15:00	84.5	84.5	84.1	42	58.9	2	4	292	0.00	30.064 
15:05	84.7	84.7	84.4	42	59.0	1	3	292	0.00	30.064 
15:10	84.9	84.9	84.8	43	59.9	1	3	292	0.00	30.064 
15:15	85.1	85.1	84.8	42	59.4	1	4	292	0.00	30.059 
15:20	85.1	85.1	84.6	41	58.7	2	5	292	0.00	30.059 
15:25	85.1	85.1	83.9	37	55.9	2	5	292	0.00	30.059 
15:30	85.1	85.1	84.3	39	57.3	2	3	315	0.00	30.055 
15:35	85.3	85.3	84.5	39	57.5	1	3	315	0.00	30.055 
15:40	85.3	85.3	84.5	39	57.5	2	3	315	0.00	30.055 
15:45	85.7	85.7	84.9	39	57.9	1	3	315	0.00	30.050 
15:50	85.7	85.7	84.2	35	54.9	1	3	315	0.00	30.050 
15:55	85.7	85.7	84.4	36	55.6	0	2	315	0.00	30.050 
16:00	85.7	85.7	84.4	36	55.6	1	4	315	0.00	30.051 
16:05	85.7	85.7	83.7	32	52.4	2	3	315	0.00	30.051 
16:10	85.5	85.5	83.4	31	51.4	2	5	292	0.00	30.051 
16:15	85.5	85.5	83.4	31	51.4	2	4	270	0.00	30.047 
16:20	85.5	85.5	83.4	31	51.4	1	4	315	0.00	30.047 
16:25	85.5	85.5	83.4	31	51.4	2	4	315	0.00	30.047 
16:30	85.5	85.5	83.6	32	52.2	1	4	292	0.00	30.041 
16:35	85.7	85.7	83.6	31	51.5	2	6	292	0.00	30.041 
16:40	85.5	85.5	83.3	30	50.5	2	5	315	0.00	30.041 
16:45	85.7	85.7	83.9	33	53.2	1	3	338	0.00	30.041 
16:50	85.7	85.7	83.7	32	52.4	2	5	338	0.00	30.041 
16:55	85.5	85.5	83.4	31	51.4	2	4	292	0.00	30.041 
17:00	85.5	85.5	83.3	30	50.5	2	5	270	0.00	30.039 
17:05	85.9	85.9	83.7	30	50.8	1	2	315	0.00	30.039 
17:10	85.7	85.7	83.5	30	50.7	1	5	315	0.00	30.039 
17:15	85.7	85.7	83.5	30	50.7	1	4	270	0.00	30.041 
17:20	85.5	85.5	83.2	29	49.6	1	3	270	0.00	30.041 
17:25	85.7	85.7	83.6	31	51.5	1	3	270	0.00	30.041 
17:30	85.9	85.9	83.8	31	51.7	1	3	338	0.00	30.037 
17:35	85.9	85.9	83.8	31	51.7	1	3	292	0.00	30.037 
17:40	85.9	85.9	83.8	31	51.7	1	3	292	0.00	30.037 
17:45	86.1	86.1	84.1	32	52.8	1	3	292	0.00	30.033 
17:50	86.1	86.1	84.1	32	52.8	1	3	292	0.00	30.033 
17:55	85.9	85.9	84.1	33	53.4	1	2	292	0.00	30.033 
18:00	85.5	85.5	83.4	31	51.4	1	5	292	0.00	30.027 
18:05	85.1	85.1	83.2	32	51.9	1	3	315	0.00	30.027 
18:10	84.9	84.9	83.1	33	52.6	1	4	270	0.00	30.027 
18:15	84.9	84.9	83.1	33	52.6	1	3	270	0.00	30.026 
18:20	84.9	84.9	83.1	33	52.6	2	5	292	0.00	30.026 
18:25	84.7	84.7	83.2	35	54.0	0	4	292	0.00	30.026 
18:30	84.5	84.5	82.8	33	52.2	0	2	292	0.00	30.020 
18:35	84.7	84.7	83.2	35	54.0	0	2	292	0.00	30.020 
18:40	84.7	84.7	82.7	31	50.7	1	3	292	0.00	30.020 
18:45	84.5	84.5	82.5	31	50.5	0	1	292	0.00	30.018 
18:50	84.7	84.7	82.7	31	50.7	0	1	292	0.00	30.018 
18:55	84.5	84.5	82.8	33	52.2	0	2	292	0.00	30.018 
19:00	84.3	84.3	82.5	32	51.2	1	2	315	0.00	30.013 
19:05	84.3	84.3	82.4	31	50.3	1	2	315	0.00	30.013 
19:10	84.3	84.3	82.6	33	52.0	0	2	315	0.00	30.013 
19:15	84.1	84.1	82.5	34	52.7	0	1	315	0.00	30.008 
19:20	84.0	84.0	82.3	33	51.8	0	2	315	0.00	30.008 
19:25	84.0	84.0	82.3	33	51.8	0	2	315	0.00	30.008 
19:30	84.0	84.0	82.3	33	51.8	0	2	315	0.00	30.009 
19:35	84.0	84.0	82.3	33	51.8	0	2	315	0.00	30.009 
19:40	84.0	84.0	82.5	34	52.6	0	1	315	0.00	30.009 
19:45	83.8	83.8	82.4	35	53.2	0	2	315	0.00	30.006 
19:50	83.6	83.6	82.2	35	53.0	0	1	315	0.00	30.006 
19:55	83.6	83.6	82.4	36	53.8	0	1	315	0.00	30.006 
20:00	83.4	83.4	82.2	36	53.6	0	0	---	0.00	30.008 
20:05	83.2	83.2	82.3	38	54.9	0	0	---	0.00	30.008 
20:10	83.0	83.0	82.2	39	55.5	0	0	---	0.00	30.008 
20:15	82.8	82.8	82.0	39	55.3	0	0	---	0.00	30.003 
20:20	82.2	82.2	81.6	40	55.4	0	0	---	0.00	30.003 
20:25	81.8	81.8	81.3	40	55.1	0	0	---	0.00	30.003 
20:30	81.6	81.6	81.3	42	56.3	0	0	---	0.00	30.002 
20:35	81.1	81.1	80.9	42	55.8	0	0	---	0.00	30.002 
20:40	80.7	80.7	80.7	43	56.1	0	0	---	0.00	30.002 
20:45	80.1	80.1	80.3	44	56.2	0	0	---	0.00	30.005 
20:50	79.6	79.6	80.1	46	57.0	0	0	---	0.00	30.005 
20:55	79.2	79.2	79.8	46	56.6	0	0	---	0.00	30.005 
21:00	78.5	78.5	79.4	47	56.6	0	0	---	0.00	30.006 
21:05	77.9	77.9	79.1	49	57.2	0	0	---	0.00	30.006 
21:10	77.4	77.4	78.9	51	57.8	0	0	---	0.00	30.006 
21:15	76.8	76.8	78.5	52	57.8	0	0	---	0.00	30.008 
21:20	76.3	76.3	78.2	53	57.9	0	0	---	0.00	30.008 
21:25	75.6	75.6	77.9	54	57.8	0	0	---	0.00	30.008 
21:30	75.3	75.3	77.7	56	58.5	0	0	---	0.00	30.010 
21:35	74.7	74.7	74.7	58	58.9	0	0	---	0.00	30.010 
21:40	74.4	74.4	74.4	59	59.1	0	0	---	0.00	30.010 
21:45	73.9	73.9	73.9	61	59.6	0	0	---	0.00	30.014 
21:50	73.5	73.5	73.5	62	59.7	0	0	---	0.00	30.014 
21:55	73.2	73.2	73.2	61	58.9	0	0	---	0.00	30.014 
22:00	72.8	72.8	72.8	62	59.0	0	0	---	0.00	30.021 
22:05	72.5	72.5	72.5	64	59.6	0	0	---	0.00	30.021 
22:10	72.1	72.1	72.1	65	59.7	0	0	---	0.00	30.021 
22:15	71.8	71.8	71.8	65	59.4	0	0	---	0.00	30.024 
22:20	71.5	71.5	71.5	64	58.7	0	0	---	0.00	30.024 
22:25	71.1	71.1	71.1	64	58.3	0	0	---	0.00	30.024 
22:30	70.9	70.9	70.9	64	58.1	0	0	---	0.00	30.029 
22:35	70.8	70.8	70.8	63	57.6	0	0	---	0.00	30.029 
22:40	70.6	70.6	70.6	64	57.8	0	0	---	0.00	30.029 
22:45	70.4	70.4	70.4	65	58.1	0	0	---	0.00	30.033 
22:50	70.3	70.3	70.3	64	57.5	0	0	---	0.00	30.033 
22:55	70.3	70.3	70.3	63	57.1	0	0	---	0.00	30.033 
23:00	70.3	70.3	70.3	61	56.2	0	0	---	0.00	30.041 
23:05	70.3	70.3	70.3	61	56.2	0	0	---	0.00	30.041 
23:10	70.3	70.3	70.3	62	56.7	0	0	---	0.00	30.041 
23:15	70.1	70.1	70.1	61	56.0	0	0	---	0.00	30.043 
23:20	69.9	69.9	69.9	62	56.3	0	0	---	0.00	30.043 
23:25	69.8	69.8	69.8	63	56.6	0	0	---	0.00	30.043 
23:30	69.4	69.4	69.4	64	56.7	0	0	---	0.00	30.042 
23:35	69.1	69.1	69.1	64	56.4	0	0	---	0.00	30.042 
23:40	68.9	68.9	68.9	65	56.6	0	0	---	0.00	30.042 
23:45	68.6	68.6	68.6	67	57.2	0	0	---	0.00	30.042 
23:50	68.3	68.3	68.3	66	56.5	0	0	---	0.00	30.042 
23:55	67.9	67.9	67.9	66	56.1	0	0	---	0.00	30.042 

CoCoRaHS
IN-AL-39
A2 Web Hosting
Creative Commons License
GoDaddy
search engine by freefind advanced

loaded 2018-11-22 06:37:32 • last modified 2010-11-18 10:43:29
Privacy PolicyDisclaimer
• wx.awcolley.com is powered by PmWiki v.2002016 •
• all content (unless otherwise noted) © 2018 A W Colley